PWSweather.com
Personal Weather Stations
Station Observations
SWHWX01
St AppolinardFR 38160

St AppolinardFR 38160

Lat: 45.191, Lon: 5.268

Elevation: 1460

Station Type: Davis Vantage Pro2 Plus

www.sweetwebhome.com/?show=wxindex

High Low Average
Temperature 54.7°F12.6°C 39.0°F3.9°C 46.3°F7.9°C
Dew Point 43.2°F6.2°C 32.6°F0.3°C 38.3°F3.5°C
Winds 3.8 mph 6.1 kmh Calm Calm 2.0 mph S3.2 kmh S
Wind Gusts 6.0 mph9.7 kmh -- 2.0 mph3.2 kmh
Humidity 85% 65% 74%
Pressure 30.31 in1026.4 mb 30.20 in1022.7 mb -
Precipitation 0.00 in0.0 mm - -
Hour Temp Dew Point Humidity Winds Wind Gusts Pressure Precip Precip Rate Daily Precip Total
12:00 AM 45.2°F7.3°C 37.4°F3.0°C 74% 2.4 mph SSW3.9 kmh SSW 4.0 mph6.4 kmh 30.20 in1022.7 mb - 0.00 in0.0 mm 0.00 in0.0 mm
12:30 AM 44.1°F6.7°C 36.7°F2.6°C 75% Calm Calm -- 30.21 in1023.0 mb - 0.00 in0.0 mm 0.00 in0.0 mm
01:00 AM 43.5°F6.4°C 36.4°F2.4°C 76% 1.0 mph SSW1.6 kmh SSW 2.0 mph3.2 kmh 30.21 in1023.0 mb - 0.00 in0.0 mm 0.00 in0.0 mm
01:30 AM 42.5°F5.8°C 36.1°F2.3°C 78% 1.6 mph SSW2.6 kmh SSW 2.0 mph3.2 kmh 30.21 in1023.0 mb - 0.00 in0.0 mm 0.00 in0.0 mm
02:00 AM 42.4°F5.8°C 36.3°F2.4°C 79% 2.6 mph SSW4.2 kmh SSW 3.0 mph4.8 kmh 30.21 in1023.0 mb - 0.00 in0.0 mm 0.00 in0.0 mm
02:30 AM 41.6°F5.3°C 35.6°F2.0°C 79% 2.3 mph SSW3.7 kmh SSW 3.0 mph4.8 kmh 30.22 in1023.4 mb - 0.00 in0.0 mm 0.00 in0.0 mm
03:00 AM 42.0°F5.6°C 36.0°F2.2°C 79% 2.9 mph SSW4.7 kmh SSW 4.0 mph6.4 kmh 30.22 in1023.4 mb - 0.00 in0.0 mm 0.00 in0.0 mm
03:30 AM 40.5°F4.7°C 35.1°F1.7°C 81% 1.4 mph SSW2.3 kmh SSW 2.0 mph3.2 kmh 30.22 in1023.4 mb - 0.00 in0.0 mm 0.00 in0.0 mm
04:00 AM 40.1°F4.5°C 35.3°F1.8°C 83% Calm Calm -- 30.21 in1023.0 mb - 0.00 in0.0 mm 0.00 in0.0 mm
04:30 AM 39.6°F4.2°C 35.2°F1.8°C 84% Calm Calm -- 30.21 in1023.0 mb - 0.00 in0.0 mm 0.00 in0.0 mm
05:00 AM 39.0°F3.9°C 34.8°F1.6°C 85% 2.3 mph SSW3.7 kmh SSW 3.0 mph4.8 kmh 30.21 in1023.0 mb - 0.00 in0.0 mm 0.00 in0.0 mm
05:30 AM 40.4°F4.7°C 35.0°F1.7°C 81% Calm Calm -- 30.22 in1023.4 mb - 0.00 in0.0 mm 0.00 in0.0 mm
06:00 AM 40.5°F4.7°C 33.8°F1.0°C 77% 0.1 mph SSW0.2 kmh SSW -- 30.22 in1023.4 mb - 0.00 in0.0 mm 0.00 in0.0 mm
06:30 AM 39.5°F4.2°C 33.2°F0.7°C 78% 1.2 mph SSW1.9 kmh SSW 2.0 mph3.2 kmh 30.22 in1023.4 mb - 0.00 in0.0 mm 0.00 in0.0 mm
07:00 AM 39.6°F4.2°C 33.6°F0.9°C 79% 1.5 mph SSW2.4 kmh SSW 2.0 mph3.2 kmh 30.22 in1023.4 mb - 0.00 in0.0 mm 0.00 in0.0 mm
07:30 AM 39.9°F4.4°C 32.9°F0.5°C 76% 1.1 mph SSW1.8 kmh SSW 2.0 mph3.2 kmh 30.23 in1023.7 mb - 0.00 in0.0 mm 0.00 in0.0 mm
08:00 AM 39.5°F4.2°C 32.6°F0.3°C 76% Calm Calm -- 30.24 in1024.0 mb - 0.00 in0.0 mm 0.00 in0.0 mm
08:30 AM 39.2°F4.0°C 32.6°F0.3°C 77% 1.4 mph SSW2.3 kmh SSW 2.0 mph3.2 kmh 30.25 in1024.4 mb - 0.00 in0.0 mm 0.00 in0.0 mm
09:00 AM 41.6°F5.3°C 35.3°F1.8°C 78% Calm Calm -- 30.26 in1024.7 mb - 0.00 in0.0 mm 0.00 in0.0 mm
09:30 AM 43.2°F6.2°C 36.5°F2.5°C 77% Calm Calm -- 30.26 in1024.7 mb - 0.00 in0.0 mm 0.00 in0.0 mm
10:00 AM 44.1°F6.7°C 36.7°F2.6°C 75% 0.8 mph SSW1.3 kmh SSW 3.0 mph4.8 kmh 30.26 in1024.7 mb - 0.00 in0.0 mm 0.00 in0.0 mm
10:30 AM 46.3°F7.9°C 38.1°F3.4°C 73% 2.1 mph SSW3.4 kmh SSW 3.0 mph4.8 kmh 30.27 in1025.1 mb - 0.00 in0.0 mm 0.00 in0.0 mm
11:00 AM 47.6°F8.7°C 38.7°F3.7°C 71% 0.6 mph SSW1.0 kmh SSW 2.0 mph3.2 kmh 30.27 in1025.1 mb - 0.00 in0.0 mm 0.00 in0.0 mm
11:30 AM 48.8°F9.3°C 39.9°F4.4°C 71% 2.8 mph S4.5 kmh S 3.0 mph4.8 kmh 30.28 in1025.4 mb - 0.00 in0.0 mm 0.00 in0.0 mm
12:00 PM 49.6°F9.8°C 41.3°F5.2°C 73% 3.7 mph S6.0 kmh S 6.0 mph9.7 kmh 30.27 in1025.1 mb - 0.00 in0.0 mm 0.00 in0.0 mm
12:30 PM 49.8°F9.9°C 40.7°F4.8°C 71% 3.6 mph S5.8 kmh S 4.0 mph6.4 kmh 30.27 in1025.1 mb - 0.00 in0.0 mm 0.00 in0.0 mm
01:00 PM 50.8°F10.4°C 40.6°F4.8°C 68% 3.3 mph S5.3 kmh S 5.0 mph8.0 kmh 30.27 in1025.1 mb - 0.00 in0.0 mm 0.00 in0.0 mm
01:30 PM 51.5°F10.8°C 40.9°F4.9°C 67% 1.8 mph S2.9 kmh S 4.0 mph6.4 kmh 30.26 in1024.7 mb - 0.00 in0.0 mm 0.00 in0.0 mm
02:00 PM 52.1°F11.2°C 41.0°F5.0°C 66% 0.9 mph S1.4 kmh S 1.0 mph1.6 kmh 30.26 in1024.7 mb - 0.00 in0.0 mm 0.00 in0.0 mm
02:30 PM 52.8°F11.6°C 41.7°F5.4°C 66% 1.8 mph SSE2.9 kmh SSE 4.0 mph6.4 kmh 30.26 in1024.7 mb - 0.00 in0.0 mm 0.00 in0.0 mm
03:00 PM 53.3°F11.8°C 41.8°F5.4°C 65% 0.8 mph SSE1.3 kmh SSE 1.0 mph1.6 kmh 30.25 in1024.4 mb - 0.00 in0.0 mm 0.00 in0.0 mm
03:30 PM 54.4°F12.4°C 42.8°F6.0°C 65% 3.8 mph SSE6.1 kmh SSE 5.0 mph8.0 kmh 30.25 in1024.4 mb - 0.00 in0.0 mm 0.00 in0.0 mm
04:00 PM 54.1°F12.3°C 42.6°F5.9°C 65% 1.3 mph SSE2.1 kmh SSE 1.0 mph1.6 kmh 30.25 in1024.4 mb - 0.00 in0.0 mm 0.00 in0.0 mm
04:30 PM 53.9°F12.2°C 42.8°F6.0°C 66% 3.2 mph SSE5.1 kmh SSE 4.0 mph6.4 kmh 30.25 in1024.4 mb - 0.00 in0.0 mm 0.00 in0.0 mm
05:00 PM 54.7°F12.6°C 43.2°F6.2°C 65% 1.5 mph SSE2.4 kmh SSE 3.0 mph4.8 kmh 30.25 in1024.4 mb - 0.00 in0.0 mm 0.00 in0.0 mm
05:30 PM 53.8°F12.1°C 42.7°F5.9°C 66% Calm Calm 1.0 mph1.6 kmh 30.25 in1024.4 mb - 0.00 in0.0 mm 0.00 in0.0 mm
06:00 PM 51.9°F11.1°C 41.7°F5.4°C 68% 2.2 mph SSE3.5 kmh SSE 3.0 mph4.8 kmh 30.26 in1024.7 mb - 0.00 in0.0 mm 0.00 in0.0 mm
06:30 PM 49.9°F9.9°C 40.9°F4.9°C 71% 2.2 mph SSE3.5 kmh SSE 3.0 mph4.8 kmh 30.26 in1024.7 mb - 0.00 in0.0 mm 0.00 in0.0 mm
07:00 PM 48.7°F9.3°C 40.8°F4.9°C 74% 2.2 mph SSE3.5 kmh SSE 3.0 mph4.8 kmh 30.27 in1025.1 mb - 0.00 in0.0 mm 0.00 in0.0 mm
07:30 PM 48.9°F9.4°C 40.6°F4.8°C 73% 1.9 mph SSE3.1 kmh SSE 2.0 mph3.2 kmh 30.28 in1025.4 mb - 0.00 in0.0 mm 0.00 in0.0 mm
08:00 PM 48.0°F8.9°C 40.5°F4.7°C 75% 0.7 mph SSE1.1 kmh SSE 1.0 mph1.6 kmh 30.29 in1025.7 mb - 0.00 in0.0 mm 0.00 in0.0 mm
08:30 PM 47.4°F8.6°C 40.2°F4.6°C 76% 2.1 mph SSE3.4 kmh SSE 3.0 mph4.8 kmh 30.29 in1025.7 mb - 0.00 in0.0 mm 0.00 in0.0 mm
09:00 PM 48.1°F8.9°C 40.2°F4.6°C 74% 2.0 mph SSE3.2 kmh SSE 3.0 mph4.8 kmh 30.29 in1025.7 mb - 0.00 in0.0 mm 0.00 in0.0 mm
09:30 PM 48.1°F8.9°C 40.2°F4.6°C 74% Calm Calm -- 30.30 in1026.1 mb - 0.00 in0.0 mm 0.00 in0.0 mm
10:00 PM 47.3°F8.5°C 39.4°F4.1°C 74% 1.9 mph SSE3.1 kmh SSE 2.0 mph3.2 kmh 30.30 in1026.1 mb - 0.00 in0.0 mm 0.00 in0.0 mm
10:30 PM 47.4°F8.6°C 39.6°F4.2°C 74% 1.6 mph SSE2.6 kmh SSE 2.0 mph3.2 kmh 30.31 in1026.4 mb - 0.00 in0.0 mm 0.00 in0.0 mm
11:00 PM 47.5°F8.6°C 39.6°F4.2°C 74% 1.6 mph SSE2.6 kmh SSE 2.0 mph3.2 kmh 30.31 in1026.4 mb - 0.00 in0.0 mm 0.00 in0.0 mm
11:30 PM 47.2°F8.4°C 38.9°F3.8°C 73% 1.5 mph SSE2.4 kmh SSE 3.0 mph4.8 kmh 30.31 in1026.4 mb - 0.00 in0.0 mm 0.00 in0.0 mm